sensor_id;sensor_type;location;lat;lon;timestamp;pressure;altitude;pressure_sealevel;temperature;humidity
72587;BME280;60621;49.576;11.024;2022-09-12T00:00:28;98561.25;;;12.85;78.80
72587;BME280;60621;49.576;11.024;2022-09-12T00:01:29;98562.00;;;12.82;79.20
72587;BME280;60621;49.576;11.024;2022-09-12T00:02:32;98563.09;;;12.77;79.43
72587;BME280;60621;49.576;11.024;2022-09-12T00:03:33;98560.06;;;12.79;79.58
72587;BME280;60621;49.576;11.024;2022-09-12T00:04:35;98563.97;;;12.89;78.23
72587;BME280;60621;49.576;11.024;2022-09-12T00:05:43;98562.44;;;12.91;78.61
72587;BME280;60621;49.576;11.024;2022-09-12T00:06:44;98560.94;;;12.90;78.22
72587;BME280;60621;49.576;11.024;2022-09-12T00:07:46;98552.59;;;12.88;78.50
72587;BME280;60621;49.576;11.024;2022-09-12T00:08:48;98563.81;;;12.74;78.68
72587;BME280;60621;49.576;11.024;2022-09-12T00:09:49;98560.34;;;12.70;78.52
72587;BME280;60621;49.576;11.024;2022-09-12T00:10:51;98558.34;;;12.60;79.51
72587;BME280;60621;49.576;11.024;2022-09-12T00:11:52;98559.81;;;12.57;79.50
72587;BME280;60621;49.576;11.024;2022-09-12T00:12:54;98551.50;;;12.55;79.49
72587;BME280;60621;49.576;11.024;2022-09-12T00:14:01;98557.59;;;12.60;79.57
72587;BME280;60621;49.576;11.024;2022-09-12T00:15:03;98554.28;;;12.70;79.09
72587;BME280;60621;49.576;11.024;2022-09-12T00:16:17;98546.00;;;12.71;78.81
72587;BME280;60621;49.576;11.024;2022-09-12T00:17:19;98548.63;;;12.71;79.03
72587;BME280;60621;49.576;11.024;2022-09-12T00:18:21;98554.28;;;12.70;78.78
72587;BME280;60621;49.576;11.024;2022-09-12T00:19:22;98558.41;;;12.64;79.41
72587;BME280;60621;49.576;11.024;2022-09-12T00:20:24;98550.47;;;12.64;77.75
72587;BME280;60621;49.576;11.024;2022-09-12T00:21:26;98553.00;;;12.56;78.43
72587;BME280;60621;49.576;11.024;2022-09-12T00:22:28;98560.91;;;12.53;78.25
72587;BME280;60621;49.576;11.024;2022-09-12T00:23:31;98557.50;;;12.52;78.47
72587;BME280;60621;49.576;11.024;2022-09-12T00:24:33;98550.78;;;12.59;78.09
72587;BME280;60621;49.576;11.024;2022-09-12T00:25:40;98553.09;;;12.64;77.39
72587;BME280;60621;49.576;11.024;2022-09-12T00:26:42;98550.72;;;12.55;77.97
72587;BME280;60621;49.576;11.024;2022-09-12T00:27:44;98550.63;;;12.48;78.32
72587;BME280;60621;49.576;11.024;2022-09-12T00:28:46;98562.22;;;12.36;78.92
72587;BME280;60621;49.576;11.024;2022-09-12T00:29:48;98558.69;;;12.25;80.14
72587;BME280;60621;49.576;11.024;2022-09-12T00:30:49;98556.75;;;12.22;79.96
72587;BME280;60621;49.576;11.024;2022-09-12T00:31:50;98552.94;;;12.19;79.85
72587;BME280;60621;49.576;11.024;2022-09-12T00:32:52;98552.13;;;12.15;79.88
72587;BME280;60621;49.576;11.024;2022-09-12T00:33:57;98561.84;;;12.38;79.27
72587;BME280;60621;49.576;11.024;2022-09-12T00:35:00;98548.53;;;12.61;78.19
72587;BME280;60621;49.576;11.024;2022-09-12T00:36:11;98548.72;;;12.78;76.62
72587;BME280;60621;49.576;11.024;2022-09-12T00:37:14;98547.81;;;12.64;76.64
72587;BME280;60621;49.576;11.024;2022-09-12T00:38:16;98546.31;;;12.66;76.34
72587;BME280;60621;49.576;11.024;2022-09-12T00:39:18;98552.34;;;12.63;76.05
72587;BME280;60621;49.576;11.024;2022-09-12T00:40:20;98551.09;;;12.53;76.70
72587;BME280;60621;49.576;11.024;2022-09-12T00:41:28;98554.34;;;12.40;77.35
72587;BME280;60621;49.576;11.024;2022-09-12T00:42:29;98561.72;;;12.27;77.98
72587;BME280;60621;49.576;11.024;2022-09-12T00:45:39;98555.44;;;12.39;78.49
72587;BME280;60621;49.576;11.024;2022-09-12T00:46:43;98547.63;;;12.19;78.36
72587;BME280;60621;49.576;11.024;2022-09-12T00:47:46;98555.34;;;12.32;78.68
72587;BME280;60621;49.576;11.024;2022-09-12T00:48:53;98548.63;;;12.38;78.23
72587;BME280;60621;49.576;11.024;2022-09-12T00:50:03;98544.09;;;12.38;77.94
72587;BME280;60621;49.576;11.024;2022-09-12T00:51:05;98540.03;;;12.44;77.79
72587;BME280;60621;49.576;11.024;2022-09-12T00:52:08;98539.66;;;12.46;76.74
72587;BME280;60621;49.576;11.024;2022-09-12T00:53:10;98548.41;;;12.50;76.94
72587;BME280;60621;49.576;11.024;2022-09-12T00:54:13;98543.50;;;12.52;76.42
72587;BME280;60621;49.576;11.024;2022-09-12T00:55:23;98544.47;;;12.37;77.28
72587;BME280;60621;49.576;11.024;2022-09-12T00:56:26;98546.66;;;12.31;77.71
72587;BME280;60621;49.576;11.024;2022-09-12T00:57:33;98538.25;;;12.22;78.51
72587;BME280;60621;49.576;11.024;2022-09-12T00:58:39;98534.78;;;12.18;78.35
72587;BME280;60621;49.576;11.024;2022-09-12T00:59:53;98529.84;;;12.16;78.53
72587;BME280;60621;49.576;11.024;2022-09-12T01:00:56;98534.38;;;12.16;79.31
72587;BME280;60621;49.576;11.024;2022-09-12T01:01:59;98527.47;;;12.08;78.43
72587;BME280;60621;49.576;11.024;2022-09-12T01:03:06;98533.03;;;11.99;78.90
72587;BME280;60621;49.576;11.024;2022-09-12T01:04:10;98525.47;;;12.01;79.51
72587;BME280;60621;49.576;11.024;2022-09-12T01:05:14;98526.34;;;12.09;78.93
72587;BME280;60621;49.576;11.024;2022-09-12T01:06:26;98530.50;;;12.10;77.66
72587;BME280;60621;49.576;11.024;2022-09-12T01:07:29;98533.72;;;12.22;77.47
72587;BME280;60621;49.576;11.024;2022-09-12T01:08:32;98531.78;;;12.49;75.92
72587;BME280;60621;49.576;11.024;2022-09-12T01:09:33;98527.50;;;12.41;75.95
72587;BME280;60621;49.576;11.024;2022-09-12T01:10:38;98521.03;;;12.35;75.96
72587;BME280;60621;49.576;11.024;2022-09-12T01:11:41;98530.34;;;12.25;76.79
72587;BME280;60621;49.576;11.024;2022-09-12T01:12:43;98530.94;;;12.12;76.97
72587;BME280;60621;49.576;11.024;2022-09-12T01:13:45;98526.16;;;11.94;77.50
72587;BME280;60621;49.576;11.024;2022-09-12T01:14:47;98534.75;;;11.88;78.32
72587;BME280;60621;49.576;11.024;2022-09-12T01:15:49;98532.81;;;11.85;78.51
72587;BME280;60621;49.576;11.024;2022-09-12T01:16:50;98528.34;;;11.89;78.81
72587;BME280;60621;49.576;11.024;2022-09-12T01:18:03;98532.34;;;12.05;78.26
72587;BME280;60621;49.576;11.024;2022-09-12T01:20:55;98527.09;;;12.09;77.33
72587;BME280;60621;49.576;11.024;2022-09-12T01:31:13;98510.09;;;12.07;78.04
72587;BME280;60621;49.576;11.024;2022-09-12T01:32:30;98508.84;;;11.97;77.84
72587;BME280;60621;49.576;11.024;2022-09-12T01:33:59;98519.00;;;11.95;77.64
72587;BME280;60621;49.576;11.024;2022-09-12T01:37:38;98513.63;;;11.88;77.09
72587;BME280;60621;49.576;11.024;2022-09-12T01:40:11;98513.09;;;11.78;77.94
72587;BME280;60621;49.576;11.024;2022-09-12T01:44:30;98510.16;;;11.84;78.13
72587;BME280;60621;49.576;11.024;2022-09-12T01:45:45;98509.31;;;11.79;78.94
72587;BME280;60621;49.576;11.024;2022-09-12T01:47:14;98512.31;;;11.78;79.33
72587;BME280;60621;49.576;11.024;2022-09-12T01:48:29;98517.91;;;11.73;78.90
72587;BME280;60621;49.576;11.024;2022-09-12T01:51:06;98518.00;;;11.80;78.77
72587;BME280;60621;49.576;11.024;2022-09-12T01:52:20;98519.72;;;11.92;77.22
72587;BME280;60621;49.576;11.024;2022-09-12T01:53:27;98511.31;;;11.86;77.38
72587;BME280;60621;49.576;11.024;2022-09-12T01:54:56;98506.03;;;11.86;78.02
72587;BME280;60621;49.576;11.024;2022-09-12T01:56:12;98498.34;;;12.04;76.95
72587;BME280;60621;49.576;11.024;2022-09-12T01:57:38;98499.59;;;12.14;76.18
72587;BME280;60621;49.576;11.024;2022-09-12T01:58:48;98495.78;;;12.11;75.91
72587;BME280;60621;49.576;11.024;2022-09-12T01:59:55;98499.91;;;12.09;76.37
72587;BME280;60621;49.576;11.024;2022-09-12T02:01:09;98499.84;;;12.01;76.60
72587;BME280;60621;49.576;11.024;2022-09-12T02:02:35;98503.66;;;11.81;77.63
72587;BME280;60621;49.576;11.024;2022-09-12T02:03:43;98497.16;;;11.75;78.02
72587;BME280;60621;49.576;11.024;2022-09-12T02:04:54;98503.00;;;11.84;78.01
72587;BME280;60621;49.576;11.024;2022-09-12T02:06:05;98494.53;;;12.01;77.22
72587;BME280;60621;49.576;11.024;2022-09-12T02:07:25;98498.94;;;12.24;76.27
72587;BME280;60621;49.576;11.024;2022-09-12T02:08:39;98496.81;;;12.03;76.56
72587;BME280;60621;49.576;11.024;2022-09-12T02:09:48;98492.59;;;11.98;77.29
72587;BME280;60621;49.576;11.024;2022-09-12T02:10:57;98485.13;;;12.04;76.55
72587;BME280;60621;49.576;11.024;2022-09-12T02:12:00;98495.13;;;11.88;76.74
72587;BME280;60621;49.576;11.024;2022-09-12T02:13:10;98490.75;;;11.76;77.49
72587;BME280;60621;49.576;11.024;2022-09-12T02:14:25;98491.19;;;11.78;77.42
72587;BME280;60621;49.576;11.024;2022-09-12T02:15:37;98490.22;;;11.90;77.42
72587;BME280;60621;49.576;11.024;2022-09-12T02:17:15;98495.00;;;12.07;76.57
72587;BME280;60621;49.576;11.024;2022-09-12T02:18:19;98486.75;;;12.12;75.90
72587;BME280;60621;49.576;11.024;2022-09-12T02:19:24;98494.72;;;12.16;75.62
72587;BME280;60621;49.576;11.024;2022-09-12T02:20:29;98489.00;;;12.14;75.45
72587;BME280;60621;49.576;11.024;2022-09-12T02:21:53;98490.72;;;11.99;75.67
72587;BME280;60621;49.576;11.024;2022-09-12T02:22:56;98497.22;;;11.78;76.53
72587;BME280;60621;49.576;11.024;2022-09-12T02:24:01;98493.50;;;11.57;77.82
72587;BME280;60621;49.576;11.024;2022-09-12T02:25:06;98492.66;;;11.49;78.29
72587;BME280;60621;49.576;11.024;2022-09-12T02:26:18;98495.19;;;11.42;79.17
72587;BME280;60621;49.576;11.024;2022-09-12T02:27:24;98486.25;;;11.50;78.83
72587;BME280;60621;49.576;11.024;2022-09-12T02:28:30;98487.06;;;11.54;78.81
72587;BME280;60621;49.576;11.024;2022-09-12T02:29:34;98484.47;;;11.58;78.09
72587;BME280;60621;49.576;11.024;2022-09-12T02:30:55;98487.09;;;11.58;78.18
72587;BME280;60621;49.576;11.024;2022-09-12T02:32:06;98490.94;;;11.60;77.88
72587;BME280;60621;49.576;11.024;2022-09-12T02:33:19;98490.16;;;11.60;78.03
72587;BME280;60621;49.576;11.024;2022-09-12T02:34:48;98482.78;;;11.72;77.22
72587;BME280;60621;49.576;11.024;2022-09-12T02:35:57;98487.41;;;11.52;78.14
72587;BME280;60621;49.576;11.024;2022-09-12T02:38:24;98484.38;;;11.50;78.18
72587;BME280;60621;49.576;11.024;2022-09-12T02:39:28;98483.50;;;11.43;78.94
72587;BME280;60621;49.576;11.024;2022-09-12T02:40:31;98483.34;;;11.32;79.60
72587;BME280;60621;49.576;11.024;2022-09-12T02:41:33;98474.94;;;11.26;80.00
72587;BME280;60621;49.576;11.024;2022-09-12T02:42:35;98482.44;;;11.24;79.79
72587;BME280;60621;49.576;11.024;2022-09-12T02:43:37;98483.94;;;11.22;79.83
72587;BME280;60621;49.576;11.024;2022-09-12T02:44:39;98482.34;;;11.17;80.20
72587;BME280;60621;49.576;11.024;2022-09-12T02:45:41;98481.59;;;11.17;80.83
72587;BME280;60621;49.576;11.024;2022-09-12T02:46:47;98478.53;;;11.15;80.44
72587;BME280;60621;49.576;11.024;2022-09-12T02:49:10;98482.81;;;11.23;80.40
72587;BME280;60621;49.576;11.024;2022-09-12T02:50:12;98482.41;;;11.21;79.42
72587;BME280;60621;49.576;11.024;2022-09-12T02:51:14;98482.72;;;11.16;79.72
72587;BME280;60621;49.576;11.024;2022-09-12T02:52:21;98481.53;;;11.13;79.95
72587;BME280;60621;49.576;11.024;2022-09-12T02:53:25;98483.41;;;11.13;80.28
72587;BME280;60621;49.576;11.024;2022-09-12T02:54:28;98483.50;;;11.20;79.32
72587;BME280;60621;49.576;11.024;2022-09-12T02:55:32;98482.75;;;11.19;79.72
72587;BME280;60621;49.576;11.024;2022-09-12T02:56:35;98482.34;;;11.17;79.64
72587;BME280;60621;49.576;11.024;2022-09-12T02:57:37;98477.22;;;11.28;79.35
72587;BME280;60621;49.576;11.024;2022-09-12T02:58:39;98477.66;;;11.30;79.22
72587;BME280;60621;49.576;11.024;2022-09-12T02:59:40;98486.97;;;11.24;79.20
72587;BME280;60621;49.576;11.024;2022-09-12T03:05:10;98480.34;;;11.11;78.45
72587;BME280;60621;49.576;11.024;2022-09-12T03:06:38;98488.38;;;11.41;77.47
72587;BME280;60621;49.576;11.024;2022-09-12T03:09:30;98478.06;;;11.32;76.61
72587;BME280;60621;49.576;11.024;2022-09-12T03:12:23;98489.38;;;11.33;77.92
72587;BME280;60621;49.576;11.024;2022-09-12T03:15:13;98481.81;;;11.08;77.97
72587;BME280;60621;49.576;11.024;2022-09-12T03:16:46;98480.53;;;11.21;78.44
72587;BME280;60621;49.576;11.024;2022-09-12T03:22:18;98474.94;;;11.26;76.32
72587;BME280;60621;49.576;11.024;2022-09-12T03:26:12;98477.06;;;11.17;76.99
72587;BME280;60621;49.576;11.024;2022-09-12T03:27:21;98471.94;;;11.01;77.63
72587;BME280;60621;49.576;11.024;2022-09-12T03:28:26;98470.38;;;10.77;79.03
72587;BME280;60621;49.576;11.024;2022-09-12T03:29:29;98474.69;;;10.66;79.05
72587;BME280;60621;49.576;11.024;2022-09-12T03:30:39;98471.22;;;10.62;79.36
72587;BME280;60621;49.576;11.024;2022-09-12T03:31:55;98469.34;;;10.63;79.44
72587;BME280;60621;49.576;11.024;2022-09-12T03:32:58;98468.59;;;10.62;79.18
72587;BME280;60621;49.576;11.024;2022-09-12T03:34:00;98466.66;;;10.59;79.68
72587;BME280;60621;49.576;11.024;2022-09-12T03:35:01;98472.41;;;10.65;79.82
72587;BME280;60621;49.576;11.024;2022-09-12T03:36:04;98466.38;;;10.64;79.03
72587;BME280;60621;49.576;11.024;2022-09-12T03:37:06;98475.88;;;10.69;78.69
72587;BME280;60621;49.576;11.024;2022-09-12T03:38:08;98470.47;;;10.62;79.27
72587;BME280;60621;49.576;11.024;2022-09-12T03:39:10;98477.22;;;10.59;78.97
72587;BME280;60621;49.576;11.024;2022-09-12T03:40:11;98477.69;;;10.65;79.41
72587;BME280;60621;49.576;11.024;2022-09-12T03:41:13;98477.47;;;10.73;79.25
72587;BME280;60621;49.576;11.024;2022-09-12T03:42:15;98478.84;;;10.67;79.07
72587;BME280;60621;49.576;11.024;2022-09-12T03:43:16;98472.41;;;10.65;79.36
72587;BME280;60621;49.576;11.024;2022-09-12T03:44:18;98478.66;;;10.57;78.90
72587;BME280;60621;49.576;11.024;2022-09-12T03:45:20;98480.84;;;10.51;79.64
72587;BME280;60621;49.576;11.024;2022-09-12T03:46:22;98481.31;;;10.57;79.27
72587;BME280;60621;49.576;11.024;2022-09-12T03:47:24;98483.84;;;10.49;79.46
72587;BME280;60621;49.576;11.024;2022-09-12T03:48:25;98477.84;;;10.52;79.43
72587;BME280;60621;49.576;11.024;2022-09-12T03:49:27;98486.19;;;10.55;79.68
72587;BME280;60621;49.576;11.024;2022-09-12T03:50:28;98490.75;;;10.58;79.79
72587;BME280;60621;49.576;11.024;2022-09-12T03:51:30;98482.91;;;10.61;79.57
72587;BME280;60621;49.576;11.024;2022-09-12T03:52:32;98483.66;;;10.62;79.33
72587;BME280;60621;49.576;11.024;2022-09-12T03:53:34;98487.50;;;10.64;79.70
72587;BME280;60621;49.576;11.024;2022-09-12T03:54:35;98482.53;;;10.63;79.51
72587;BME280;60621;49.576;11.024;2022-09-12T03:55:38;98480.59;;;10.79;78.74
72587;BME280;60621;49.576;11.024;2022-09-12T03:56:39;98481.94;;;10.92;77.60
72587;BME280;60621;49.576;11.024;2022-09-12T03:57:42;98486.41;;;10.88;77.49
72587;BME280;60621;49.576;11.024;2022-09-12T03:58:44;98478.13;;;10.90;77.66
72587;BME280;60621;49.576;11.024;2022-09-12T03:59:47;98483.41;;;10.90;77.10
72587;BME280;60621;49.576;11.024;2022-09-12T04:00:49;98482.75;;;10.96;77.13
72587;BME280;60621;49.576;11.024;2022-09-12T04:01:51;98478.44;;;11.08;76.41
72587;BME280;60621;49.576;11.024;2022-09-12T04:02:54;98475.19;;;11.18;75.94
72587;BME280;60621;49.576;11.024;2022-09-12T04:03:59;98479.03;;;11.20;75.48
72587;BME280;60621;49.576;11.024;2022-09-12T04:05:01;98470.66;;;11.18;75.45
72587;BME280;60621;49.576;11.024;2022-09-12T04:06:03;98483.69;;;11.31;75.16
72587;BME280;60621;49.576;11.024;2022-09-12T04:07:05;98476.84;;;11.26;75.24
72587;BME280;60621;49.576;11.024;2022-09-12T04:08:06;98477.06;;;11.17;75.50
72587;BME280;60621;49.576;11.024;2022-09-12T04:09:08;98480.31;;;11.07;75.46
72587;BME280;60621;49.576;11.024;2022-09-12T04:10:09;98473.44;;;11.02;76.06
72587;BME280;60621;49.576;11.024;2022-09-12T04:11:13;98473.75;;;10.97;76.67
72587;BME280;60621;49.576;11.024;2022-09-12T04:12:14;98475.41;;;10.86;76.74
72587;BME280;60621;49.576;11.024;2022-09-12T04:13:16;98470.38;;;10.77;77.69
72587;BME280;60621;49.576;11.024;2022-09-12T04:14:18;98474.00;;;10.69;78.20
72587;BME280;60621;49.576;11.024;2022-09-12T04:15:19;98474.06;;;10.73;78.57
72587;BME280;60621;49.576;11.024;2022-09-12T04:16:21;98478.56;;;10.72;78.69
72587;BME280;60621;49.576;11.024;2022-09-12T04:17:22;98485.31;;;10.70;78.80
72587;BME280;60621;49.576;11.024;2022-09-12T04:18:24;98475.75;;;10.62;79.43
72587;BME280;60621;49.576;11.024;2022-09-12T04:19:26;98481.38;;;10.60;80.00
72587;BME280;60621;49.576;11.024;2022-09-12T04:20:28;98477.28;;;10.63;80.34
72587;BME280;60621;49.576;11.024;2022-09-12T04:21:30;98476.75;;;10.76;79.55
72587;BME280;60621;49.576;11.024;2022-09-12T04:22:31;98480.13;;;10.73;79.29
72587;BME280;60621;49.576;11.024;2022-09-12T04:23:33;98482.41;;;10.75;79.72
72587;BME280;60621;49.576;11.024;2022-09-12T04:24:35;98483.50;;;10.74;79.31
72587;BME280;60621;49.576;11.024;2022-09-12T04:25:37;98488.03;;;10.73;79.63
72587;BME280;60621;49.576;11.024;2022-09-12T04:26:38;98484.22;;;10.71;79.39
72587;BME280;60621;49.576;11.024;2022-09-12T04:27:40;98487.53;;;10.68;79.60
72587;BME280;60621;49.576;11.024;2022-09-12T04:28:42;98486.84;;;10.71;80.05
72587;BME280;60621;49.576;11.024;2022-09-12T04:29:44;98492.94;;;10.75;79.62
72587;BME280;60621;49.576;11.024;2022-09-12T04:30:45;98489.38;;;10.87;79.62
72587;BME280;60621;49.576;11.024;2022-09-12T04:31:47;98490.44;;;11.05;78.70
72587;BME280;60621;49.576;11.024;2022-09-12T04:32:48;98485.97;;;11.09;77.54
72587;BME280;60621;49.576;11.024;2022-09-12T04:33:55;98490.63;;;10.93;77.83
72587;BME280;60621;49.576;11.024;2022-09-12T04:34:57;98491.25;;;10.86;78.08
72587;BME280;60621;49.576;11.024;2022-09-12T04:36:06;98481.34;;;10.80;78.00
72587;BME280;60621;49.576;11.024;2022-09-12T04:37:08;98491.63;;;10.85;78.73
72587;BME280;60621;49.576;11.024;2022-09-12T04:38:11;98482.81;;;11.00;77.45
72587;BME280;60621;49.576;11.024;2022-09-12T04:39:13;98482.13;;;11.03;77.82
72587;BME280;60621;49.576;11.024;2022-09-12T04:40:15;98480.47;;;10.95;78.27
72587;BME280;60621;49.576;11.024;2022-09-12T04:41:22;98481.81;;;10.85;78.50
72587;BME280;60621;49.576;11.024;2022-09-12T04:42:24;98483.34;;;10.86;79.25
72587;BME280;60621;49.576;11.024;2022-09-12T04:43:25;98476.53;;;10.85;79.41
72587;BME280;60621;49.576;11.024;2022-09-12T04:44:27;98478.34;;;10.81;79.90
72587;BME280;60621;49.576;11.024;2022-09-12T04:45:29;98480.28;;;10.84;79.37
72587;BME280;60621;49.576;11.024;2022-09-12T04:46:33;98477.28;;;10.86;79.60
72587;BME280;60621;49.576;11.024;2022-09-12T04:47:35;98475.09;;;10.88;80.09
72587;BME280;60621;49.576;11.024;2022-09-12T04:48:37;98481.38;;;11.02;79.24
72587;BME280;60621;49.576;11.024;2022-09-12T04:49:38;98483.34;;;11.09;79.53
72587;BME280;60621;49.576;11.024;2022-09-12T04:50:40;98478.59;;;11.18;79.16
72587;BME280;60621;49.576;11.024;2022-09-12T04:51:42;98478.66;;;11.22;78.77
72587;BME280;60621;49.576;11.024;2022-09-12T04:52:53;98481.81;;;11.31;78.04
72587;BME280;60621;49.576;11.024;2022-09-12T04:54:00;98475.88;;;11.38;78.08
72587;BME280;60621;49.576;11.024;2022-09-12T04:55:02;98483.34;;;11.32;78.35
72587;BME280;60621;49.576;11.024;2022-09-12T04:56:05;98489.97;;;11.22;78.84
72587;BME280;60621;49.576;11.024;2022-09-12T04:57:07;98480.34;;;11.34;78.02
72587;BME280;60621;49.576;11.024;2022-09-12T04:58:08;98489.19;;;11.45;78.03
72587;BME280;60621;49.576;11.024;2022-09-12T04:59:11;98482.25;;;11.60;77.56
72587;BME280;60621;49.576;11.024;2022-09-12T05:00:14;98481.25;;;11.71;77.07
72587;BME280;60621;49.576;11.024;2022-09-12T05:01:18;98487.13;;;11.84;76.54
72587;BME280;60621;49.576;11.024;2022-09-12T05:02:20;98486.38;;;11.84;75.99
72587;BME280;60621;49.576;11.024;2022-09-12T05:03:21;98486.28;;;11.80;76.46
72587;BME280;60621;49.576;11.024;2022-09-12T05:04:23;98484.31;;;11.73;76.67
72587;BME280;60621;49.576;11.024;2022-09-12T05:05:24;98488.66;;;11.59;77.61
72587;BME280;60621;49.576;11.024;2022-09-12T05:06:30;98490.25;;;11.67;77.37
72587;BME280;60621;49.576;11.024;2022-09-12T05:07:32;98497.97;;;11.52;77.52
72587;BME280;60621;49.576;11.024;2022-09-12T05:08:34;98494.13;;;11.46;78.56
72587;BME280;60621;49.576;11.024;2022-09-12T05:09:35;98491.13;;;11.48;78.17
72587;BME280;60621;49.576;11.024;2022-09-12T05:10:37;98493.88;;;11.55;77.85
72587;BME280;60621;49.576;11.024;2022-09-12T05:11:40;98484.63;;;11.68;77.33
72587;BME280;60621;49.576;11.024;2022-09-12T05:13:03;98490.69;;;11.72;76.88
72587;BME280;60621;49.576;11.024;2022-09-12T05:14:04;98496.91;;;11.57;77.94
72587;BME280;60621;49.576;11.024;2022-09-12T05:15:06;98491.41;;;11.43;79.06
72587;BME280;60621;49.576;11.024;2022-09-12T05:16:10;98497.00;;;11.38;79.62
72587;BME280;60621;49.576;11.024;2022-09-12T05:17:12;98493.19;;;11.35;79.88
72587;BME280;60621;49.576;11.024;2022-09-12T05:18:13;98491.66;;;11.34;80.20
72587;BME280;60621;49.576;11.024;2022-09-12T05:19:14;98493.91;;;11.32;79.68
72587;BME280;60621;49.576;11.024;2022-09-12T05:20:16;98498.00;;;11.29;79.98
72587;BME280;60621;49.576;11.024;2022-09-12T05:21:19;98487.44;;;11.29;80.08
72587;BME280;60621;49.576;11.024;2022-09-12T05:22:21;98497.81;;;11.42;79.71
72587;BME280;60621;49.576;11.024;2022-09-12T05:23:23;98506.31;;;11.54;78.58
72587;BME280;60621;49.576;11.024;2022-09-12T05:24:25;98504.91;;;11.61;78.65
72587;BME280;60621;49.576;11.024;2022-09-12T05:25:26;98503.97;;;11.76;78.35
72587;BME280;60621;49.576;11.024;2022-09-12T05:26:28;98504.13;;;11.83;77.59
72587;BME280;60621;49.576;11.024;2022-09-12T05:27:30;98507.34;;;11.99;77.03
72587;BME280;60621;49.576;11.024;2022-09-12T05:28:34;98505.69;;;11.88;76.64
72587;BME280;60621;49.576;11.024;2022-09-12T05:29:35;98510.78;;;11.77;77.79
72587;BME280;60621;49.576;11.024;2022-09-12T05:30:37;98513.66;;;11.91;77.05
72587;BME280;60621;49.576;11.024;2022-09-12T05:31:39;98512.94;;;11.94;76.54
72587;BME280;60621;49.576;11.024;2022-09-12T05:32:40;98505.81;;;11.72;77.39
72587;BME280;60621;49.576;11.024;2022-09-12T05:33:43;98513.72;;;11.72;78.22
72587;BME280;60621;49.576;11.024;2022-09-12T05:34:45;98510.91;;;11.84;76.79
72587;BME280;60621;49.576;11.024;2022-09-12T05:35:50;98512.19;;;11.94;75.85
72587;BME280;60621;49.576;11.024;2022-09-12T05:36:53;98511.47;;;11.97;75.96
72587;BME280;60621;49.576;11.024;2022-09-12T05:37:54;98514.00;;;11.90;75.85
72587;BME280;60621;49.576;11.024;2022-09-12T05:38:58;98503.53;;;11.70;76.90
72587;BME280;60621;49.576;11.024;2022-09-12T05:39:59;98508.88;;;11.74;77.20
72587;BME280;60621;49.576;11.024;2022-09-12T05:41:10;98510.91;;;11.84;76.76
72587;BME280;60621;49.576;11.024;2022-09-12T05:42:18;98517.91;;;11.99;75.94
72587;BME280;60621;49.576;11.024;2022-09-12T05:43:19;98515.72;;;12.05;75.61
72587;BME280;60621;49.576;11.024;2022-09-12T05:44:21;98515.69;;;12.01;76.02
72587;BME280;60621;49.576;11.024;2022-09-12T05:45:22;98516.84;;;12.04;75.75
72587;BME280;60621;49.576;11.024;2022-09-12T05:46:29;98519.28;;;12.16;75.47
72587;BME280;60621;49.576;11.024;2022-09-12T05:47:31;98518.09;;;12.14;75.30
72587;BME280;60621;49.576;11.024;2022-09-12T05:48:34;98513.44;;;12.03;75.88
72587;BME280;60621;49.576;11.024;2022-09-12T05:49:37;98508.09;;;12.00;76.04
72587;BME280;60621;49.576;11.024;2022-09-12T05:50:38;98511.56;;;12.04;76.09
72587;BME280;60621;49.576;11.024;2022-09-12T05:51:42;98512.38;;;12.08;75.89
72587;BME280;60621;49.576;11.024;2022-09-12T05:52:44;98512.63;;;11.99;76.34
72587;BME280;60621;49.576;11.024;2022-09-12T05:53:48;98515.38;;;12.07;76.33
72587;BME280;60621;49.576;11.024;2022-09-12T05:54:51;98516.97;;;12.15;76.55
72587;BME280;60621;49.576;11.024;2022-09-12T05:56:09;98518.88;;;12.14;76.56
72587;BME280;60621;49.576;11.024;2022-09-12T05:57:11;98513.38;;;11.96;77.57
72587;BME280;60621;49.576;11.024;2022-09-12T05:58:13;98510.84;;;11.80;78.72
72587;BME280;60621;49.576;11.024;2022-09-12T05:59:17;98517.50;;;11.71;79.44
72587;BME280;60621;49.576;11.024;2022-09-12T06:00:19;98517.44;;;11.67;80.13
72587;BME280;60621;49.576;11.024;2022-09-12T06:01:21;98509.50;;;11.67;80.66
72587;BME280;60621;49.576;11.024;2022-09-12T06:02:23;98515.63;;;11.71;80.41
72587;BME280;60621;49.576;11.024;2022-09-12T06:03:24;98517.44;;;11.67;81.02
72587;BME280;60621;49.576;11.024;2022-09-12T06:04:26;98517.03;;;11.65;81.21
72587;BME280;60621;49.576;11.024;2022-09-12T06:05:28;98516.75;;;11.70;81.69
72587;BME280;60621;49.576;11.024;2022-09-12T06:06:30;98523.09;;;11.66;81.51
72587;BME280;60621;49.576;11.024;2022-09-12T06:07:33;98521.25;;;11.70;82.04
72587;BME280;60621;49.576;11.024;2022-09-12T06:08:35;98525.84;;;11.73;82.27
72587;BME280;60621;49.576;11.024;2022-09-12T06:09:37;98524.72;;;11.74;81.83
72587;BME280;60621;49.576;11.024;2022-09-12T06:10:39;98525.19;;;11.79;81.99
72587;BME280;60621;49.576;11.024;2022-09-12T06:11:40;98526.28;;;12.01;81.28
72587;BME280;60621;49.576;11.024;2022-09-12T06:12:42;98531.44;;;12.21;80.68
72587;BME280;60621;49.576;11.024;2022-09-12T06:13:44;98524.44;;;12.36;80.11
72587;BME280;60621;49.576;11.024;2022-09-12T06:14:45;98522.59;;;12.43;79.22
72587;BME280;60621;49.576;11.024;2022-09-12T06:15:47;98521.53;;;12.48;79.48
72587;BME280;60621;49.576;11.024;2022-09-12T06:16:49;98521.91;;;12.46;79.06
72587;BME280;60621;49.576;11.024;2022-09-12T06:17:51;98526.00;;;12.40;79.31
72587;BME280;60621;49.576;11.024;2022-09-12T06:18:54;98532.69;;;12.34;79.75
72587;BME280;60621;49.576;11.024;2022-09-12T06:19:56;98528.22;;;12.38;79.83